Time;durP1;ratioP1;P1;durP2;ratioP2;P2;SDS_P1;SDS_P2;PMS_P1;PMS_P2;Temp;Humidity;BMP_temperature;BMP_pressure;BME280_temperature;BME280_humidity;BME280_pressure;Samples;Min_cycle;Max_cycle;Signal;HPM_P1;HPM_P2
2020/12/15 00:00:58;;;;;;;17.80;11.27;;;;;;;3.18;91.33;98438.16;4973615;28;20559;-80
2020/12/15 00:03:23;;;;;;;17.92;10.63;;;;;;;3.18;91.28;98443.25;4973587;28;20484;-80
2020/12/15 00:05:49;;;;;;;20.25;11.02;;;;;;;3.19;91.06;98447.56;4973663;28;20388;-80
2020/12/15 00:08:14;;;;;;;13.90;9.50;;;;;;;3.18;90.98;98440.72;4973489;28;20030;-80
2020/12/15 00:10:39;;;;;;;15.98;9.50;;;;;;;3.23;91.15;98438.19;4973529;28;20033;-80
2020/12/15 00:13:05;;;;;;;21.83;10.65;;;;;;;3.22;90.99;98442.44;4973178;28;20049;-82
2020/12/15 00:15:30;;;;;;;13.68;8.98;;;;;;;3.20;91.00;98444.16;4973247;28;20027;-82
2020/12/15 00:17:55;;;;;;;16.20;10.07;;;;;;;3.17;91.11;98449.25;4973509;28;20388;-81
2020/12/15 00:20:21;;;;;;;14.13;9.18;;;;;;;3.16;91.29;98447.53;4973478;28;20025;-80
2020/12/15 00:22:46;;;;;;;14.38;9.60;;;;;;;3.11;91.63;98449.22;4973199;28;20027;-82
2020/12/15 00:25:11;;;;;;;17.80;8.95;;;;;;;3.22;91.49;98445.00;4973201;28;20027;-81
2020/12/15 00:27:37;;;;;;;15.93;9.70;;;;;;;3.15;91.34;98450.94;4973355;28;20439;-80
2020/12/15 00:30:03;;;;;;;13.73;9.15;;;;;;;3.13;91.30;98452.63;4973206;28;20030;-81
2020/12/15 00:32:28;;;;;;;21.70;10.00;;;;;;;3.11;91.63;98446.66;4973234;28;20416;-80
2020/12/15 00:34:53;;;;;;;14.52;9.00;;;;;;;3.20;91.47;98453.53;4973292;28;20018;-80
2020/12/15 00:37:19;;;;;;;15.07;9.75;;;;;;;3.19;91.51;98456.91;4973326;28;20033;-82
2020/12/15 00:39:44;;;;;;;12.85;8.57;;;;;;;3.17;91.04;98459.47;4973081;28;20026;-81
2020/12/15 00:42:09;;;;;;;15.07;8.48;;;;;;;3.20;90.76;98459.50;4973155;28;20369;-80
2020/12/15 00:44:35;;;;;;;15.07;8.90;;;;;;;3.13;91.33;98457.75;4972743;28;20120;-81
2020/12/15 00:47:00;;;;;;;13.02;8.80;;;;;;;3.22;91.32;98449.28;4971824;28;20035;-81
2020/12/15 00:49:25;;;;;;;15.35;9.38;;;;;;;3.20;91.14;98451.81;4971387;28;20026;-81
2020/12/15 00:51:51;;;;;;;14.25;8.45;;;;;;;3.14;91.48;98449.22;4973127;28;20034;-81
2020/12/15 00:54:16;;;;;;;21.83;8.73;;;;;;;3.17;91.52;98444.13;4972644;28;20029;-80
2020/12/15 00:56:42;;;;;;;14.95;9.98;;;;;;;3.19;91.37;98437.31;4972827;28;20030;-81
2020/12/15 00:59:08;;;;;;;13.55;8.27;;;;;;;3.17;91.64;98444.13;4972968;28;20031;-80
2020/12/15 07:02:59;;;;;;;10.20;7.07;;;;;;;3.77;89.92;98437.59;4897105;29;20461;-72
2020/12/15 07:05:28;;;;;;;13.50;6.60;;;;;;;3.79;89.92;98448.69;4898536;29;20119;-72
2020/12/15 07:07:59;;;;;;;11.57;6.25;;;;;;;3.82;89.60;98456.41;4898391;29;20096;-72
2020/12/15 07:10:29;;;;;;;10.48;5.68;;;;;;;3.85;89.40;98456.41;4898665;29;20037;-72
2020/12/15 07:12:59;;;;;;;10.43;6.03;;;;;;;3.92;89.36;98453.88;4898453;29;20470;-72
2020/12/15 07:15:25;;;;;;;9.43;5.90;;;;;;;3.89;89.42;98446.16;4950523;23;20134;-71
2020/12/15 07:17:51;;;;;;;10.70;6.47;;;;;;;3.93;89.09;98447.88;4974693;28;20466;-71
2020/12/15 07:20:18;;;;;;;12.63;6.28;;;;;;;3.97;89.32;98444.50;4974694;28;20378;-71
2020/12/15 07:22:44;;;;;;;14.65;7.43;;;;;;;4.14;88.45;98437.69;4974389;28;20085;-72
2020/12/15 07:25:10;;;;;;;11.93;6.82;;;;;;;4.11;88.32;98453.94;4974584;28;20027;-72
2020/12/15 07:27:40;;;;;;;11.40;7.07;;;;;;;4.13;88.21;98453.91;4974595;28;20439;-72
2020/12/15 07:30:18;;;;;;;12.10;6.35;;;;;;;4.23;87.70;98463.34;4974709;28;20031;-72
2020/12/15 07:32:44;;;;;;;10.77;6.45;;;;;;;4.34;86.56;98456.50;4974579;28;20427;-72
2020/12/15 07:35:22;;;;;;;7.60;5.40;;;;;;;4.36;86.31;98459.97;4974475;28;20043;-72
2020/12/15 07:37:50;;;;;;;9.13;5.75;;;;;;;4.41;85.73;98465.09;4974576;28;20038;-72
2020/12/15 07:40:18;;;;;;;12.00;6.20;;;;;;;4.48;85.53;98473.63;4974391;28;20483;-72
2020/12/15 07:42:58;;;;;;;12.20;5.32;;;;;;;4.58;84.99;98475.38;4974390;28;20119;-73
2020/12/15 07:45:24;;;;;;;;;;;;;;;4.63;84.89;98478.78;4953053;28;20140;-70
2020/12/15 07:47:51;;;;;;;8.82;5.40;;;;;;;4.62;84.77;98477.94;4984802;28;20379;-72
2020/12/15 07:50:16;;;;;;;10.40;5.60;;;;;;;4.61;84.94;98475.38;4973977;28;20105;-72
2020/12/15 07:52:42;;;;;;;10.32;5.82;;;;;;;4.58;85.27;98475.38;4974175;28;20110;-72
2020/12/15 07:55:12;;;;;;;15.85;6.07;;;;;;;4.66;85.81;98472.81;4973806;28;20027;-72
2020/12/15 07:57:40;;;;;;;9.32;6.00;;;;;;;4.63;85.48;98471.09;4973112;28;20105;-72
2020/12/15 08:00:15;;;;;;;10.50;6.07;;;;;;;4.61;85.43;98475.38;4973883;28;20088;-72
2020/12/15 08:02:41;;;;;;;10.70;6.13;;;;;;;4.64;85.65;98465.09;4973864;28;20035;-72
2020/12/15 08:05:21;;;;;;;7.28;6.13;;;;;;;4.63;85.53;98468.53;4973540;28;20473;-72
2020/12/15 08:07:49;;;;;;;11.40;7.18;;;;;;;4.68;85.29;98477.06;4973878;28;20034;-72
2020/12/15 08:10:22;;;;;;;11.60;6.78;;;;;;;4.63;85.66;98476.22;4973611;28;20031;-72
2020/12/15 08:12:47;;;;;;;13.95;7.80;;;;;;;4.79;85.04;98475.38;4973684;28;20019;-72
2020/12/15 08:15:13;;;;;;;17.60;8.48;;;;;;;4.68;85.59;98469.38;4973529;28;20023;-71
2020/12/15 08:17:40;;;;;;;16.30;7.68;;;;;;;4.60;86.22;98478.81;4973685;28;20022;-72
2020/12/15 08:20:07;;;;;;;13.38;8.20;;;;;;;4.58;86.40;98488.19;4973429;28;20114;-71
2020/12/15 08:22:39;;;;;;;12.35;7.65;;;;;;;4.50;87.36;98477.09;4973379;28;20030;-72
2020/12/15 08:25:07;;;;;;;16.77;9.05;;;;;;;4.55;87.11;98480.50;4973339;28;20038;-72
2020/12/15 08:27:34;;;;;;;17.27;9.10;;;;;;;4.56;87.11;98482.22;4973514;28;20077;-72
2020/12/15 08:29:59;;;;;;;13.15;8.20;;;;;;;4.58;86.91;98485.63;4973165;28;20043;-72
2020/12/15 08:32:26;;;;;;;13.77;7.75;;;;;;;4.58;86.50;98490.75;4973259;28;20049;-72
2020/12/15 08:35:02;;;;;;;16.77;9.02;;;;;;;4.64;86.39;98501.00;4973234;28;20049;-72
2020/12/15 08:37:28;;;;;;;12.48;7.60;;;;;;;4.64;86.47;98501.91;4973394;28;20060;-72
2020/12/15 08:39:54;;;;;;;11.98;7.10;;;;;;;4.58;86.38;98506.16;4973074;28;20033;-72
2020/12/15 08:42:20;;;;;;;14.73;7.30;;;;;;;4.58;86.40;98514.69;4973166;28;20031;-72
2020/12/15 08:44:46;;;;;;;13.25;7.18;;;;;;;4.62;86.71;98507.88;4972630;28;20029;-71
2020/12/15 08:47:16;;;;;;;11.25;6.53;;;;;;;4.58;86.83;98511.28;4973102;28;20045;-71
2020/12/15 08:49:41;;;;;;;11.68;7.90;;;;;;;4.53;87.38;98523.25;4972874;28;20023;-71
2020/12/15 08:52:07;;;;;;;16.45;7.43;;;;;;;4.58;87.50;98513.84;4973081;28;20476;-72
2020/12/15 08:54:42;;;;;;;13.48;7.72;;;;;;;4.62;87.45;98528.41;4972875;28;20045;-72
2020/12/15 08:57:12;;;;;;;17.30;8.35;;;;;;;4.61;87.41;98516.44;4972862;28;20049;-72
2020/12/15 08:59:37;;;;;;;15.27;8.18;;;;;;;4.62;87.92;98533.53;4972917;28;20085;-72
2020/12/15 09:02:03;;;;;;;12.38;8.43;;;;;;;4.66;87.31;98525.00;4972763;28;20238;-72
2020/12/15 09:04:28;;;;;;;13.40;8.05;;;;;;;4.65;87.61;98525.84;4972508;28;20081;-72
2020/12/15 09:06:54;;;;;;;12.02;7.93;;;;;;;4.68;87.81;98538.66;4972774;28;20026;-72
2020/12/15 09:09:28;;;;;;;13.30;7.43;;;;;;;4.75;87.46;98534.41;4972526;28;20369;-72
2020/12/15 09:11:55;;;;;;;18.63;8.15;;;;;;;4.72;87.50;98549.78;4972791;28;20423;-72
2020/12/15 09:14:20;;;;;;;16.50;8.20;;;;;;;4.79;87.20;98541.25;4972273;28;20023;-71
2020/12/15 09:16:45;;;;;;;16.23;8.05;;;;;;;4.68;87.39;98530.97;4972558;28;20027;-71
2020/12/15 09:19:15;;;;;;;19.23;9.00;;;;;;;4.71;87.55;98538.69;4973008;28;20041;-71
2020/12/15 09:21:42;;;;;;;14.90;7.82;;;;;;;4.76;87.61;98536.97;4972407;28;20030;-71
2020/12/15 09:24:09;;;;;;;16.88;8.77;;;;;;;4.72;87.49;98535.25;4972258;28;20062;-72
2020/12/15 09:26:38;;;;;;;22.10;9.43;;;;;;;4.75;87.44;98539.53;4972714;28;20015;-72
2020/12/15 09:29:10;;;;;;;13.85;8.75;;;;;;;4.81;87.81;98539.53;4972531;28;20042;-72
2020/12/15 09:31:37;;;;;;;24.23;8.18;;;;;;;4.86;87.16;98543.81;4972383;28;20034;-72
2020/12/15 09:34:03;;;;;;;14.60;8.05;;;;;;;4.88;87.39;98546.38;4972143;28;20026;-72
2020/12/15 09:36:28;;;;;;;20.02;8.30;;;;;;;4.97;87.53;98550.66;4972200;28;20097;-72
2020/12/15 09:38:54;;;;;;;14.70;8.15;;;;;;;5.04;87.24;98552.41;4971200;28;20027;-72
2020/12/15 09:41:19;;;;;;;15.30;8.18;;;;;;;5.08;87.38;98543.84;4972173;28;20023;-72
2020/12/15 09:43:44;;;;;;;18.30;8.55;;;;;;;5.14;86.86;98538.72;4972088;28;20031;-72
2020/12/15 09:46:10;;;;;;;17.15;8.45;;;;;;;5.22;86.92;98537.00;4971928;28;20027;-72
2020/12/15 09:48:35;;;;;;;12.50;8.00;;;;;;;5.33;85.91;98544.69;4972099;28;20125;-72
2020/12/15 09:51:00;;;;;;;15.88;8.70;;;;;;;5.26;86.30;98541.25;4972079;28;20041;-72
2020/12/15 09:53:27;;;;;;;17.52;8.52;;;;;;;5.26;86.38;98536.13;4972024;28;20022;-72
2020/12/15 09:55:53;;;;;;;15.85;7.82;;;;;;;5.13;86.21;98537.00;4972125;28;20279;-72
2020/12/15 09:58:18;;;;;;;17.20;8.13;;;;;;;5.25;86.08;98531.84;4972144;28;20033;-72
2020/12/15 10:00:43;;;;;;;15.45;8.18;;;;;;;5.12;86.14;98519.84;4972361;28;20583;-72
2020/12/15 10:03:08;;;;;;;13.52;7.03;;;;;;;5.20;86.29;98533.56;4971829;28;20027;-71
2020/12/15 10:05:34;;;;;;;18.48;7.90;;;;;;;5.15;86.25;98535.28;4972036;28;20054;-71
2020/12/15 10:07:59;;;;;;;13.85;8.82;;;;;;;5.08;87.19;98508.75;4971809;28;20484;-71
2020/12/15 10:10:24;;;;;;;16.70;9.00;;;;;;;5.07;87.24;98534.41;4972039;28;20468;-71
2020/12/15 10:12:50;;;;;;;16.35;9.18;;;;;;;5.20;86.78;98538.69;4971816;28;20547;-71
2020/12/15 10:15:15;;;;;;;17.02;9.15;;;;;;;5.23;86.76;98533.56;4971902;28;20031;-71
2020/12/15 10:17:41;;;;;;;13.40;8.25;;;;;;;5.15;86.21;98530.16;4971907;28;20037;-70
2020/12/15 10:20:08;;;;;;;20.40;8.80;;;;;;;5.27;86.31;98525.00;4972393;28;20514;-71
2020/12/15 10:22:33;;;;;;;14.77;9.95;;;;;;;5.38;85.71;98525.84;4975081;28;20027;-70
2020/12/15 10:24:59;;;;;;;15.60;8.65;;;;;;;5.27;85.50;98522.44;4975684;28;20033;-72
2020/12/15 10:27:24;;;;;;;21.85;9.15;;;;;;;5.24;86.62;98519.88;4975558;28;20439;-73
2020/12/15 10:29:50;;;;;;;19.95;8.70;;;;;;;5.28;86.66;98510.44;4975556;28;20029;-73
2020/12/15 10:32:15;;;;;;;16.00;9.00;;;;;;;5.31;87.04;98513.84;4975410;28;20054;-73
2020/12/15 10:34:40;;;;;;;12.63;8.07;;;;;;;5.32;86.32;98507.88;4975283;28;20407;-73
2020/12/15 10:37:06;;;;;;;15.48;8.15;;;;;;;5.32;86.79;98502.75;4975243;28;20082;-73
2020/12/15 10:39:31;;;;;;;13.20;7.60;;;;;;;5.44;86.25;98501.84;4975615;28;20078;-73
2020/12/15 10:41:56;;;;;;;14.95;8.07;;;;;;;5.43;86.28;98500.16;4975519;28;20034;-73
2020/12/15 10:44:22;;;;;;;16.42;8.32;;;;;;;5.48;86.54;98502.72;4974926;28;20113;-73
2020/12/15 10:46:48;;;;;;;13.07;8.02;;;;;;;5.56;86.52;98506.97;4975287;28;20035;-73
2020/12/15 10:49:16;;;;;;;12.52;8.38;;;;;;;5.60;86.08;98497.53;4975197;28;20063;-73
2020/12/15 10:51:42;;;;;;;13.30;7.50;;;;;;;5.59;85.93;98495.81;4975088;28;20034;-73
2020/12/15 10:54:08;;;;;;;13.73;7.80;;;;;;;5.67;85.82;98494.94;4974926;28;20030;-73
2020/12/15 10:56:33;;;;;;;16.25;8.05;;;;;;;5.73;86.26;98508.63;4975159;28;20022;-73
2020/12/15 10:58:59;;;;;;;14.10;7.40;;;;;;;5.89;84.99;98511.13;4975122;28;20027;-73
2020/12/15 11:01:26;;;;;;;12.45;7.65;;;;;;;6.07;84.14;98514.53;4974935;28;20026;-73
2020/12/15 11:03:52;;;;;;;18.92;8.25;;;;;;;6.26;83.36;98521.31;4974819;28;20034;-73
2020/12/15 11:06:17;;;;;;;9.55;6.35;;;;;;;6.36;82.19;98517.81;4974775;28;20460;-73
2020/12/15 11:08:42;;;;;;;10.73;6.78;;;;;;;6.44;81.64;98521.22;4975053;28;20031;-73
2020/12/15 11:11:11;;;;;;;11.18;7.15;;;;;;;6.62;80.98;98524.53;4975043;28;20046;-73
2020/12/15 11:13:37;;;;;;;12.93;7.90;;;;;;;6.76;80.71;98530.44;4974637;28;20029;-73
2020/12/15 11:16:02;;;;;;;11.20;6.88;;;;;;;6.72;80.81;98521.06;4973349;28;20023;-73
2020/12/15 11:18:28;;;;;;;15.88;6.85;;;;;;;6.70;80.28;98515.03;4974670;28;20026;-73
2020/12/15 11:20:53;;;;;;;12.52;7.90;;;;;;;6.69;80.62;98510.78;4974618;28;20411;-73
2020/12/15 11:23:18;;;;;;;11.30;7.32;;;;;;;6.79;80.98;98509.84;4974521;28;20092;-74
2020/12/15 11:25:47;;;;;;;12.45;7.47;;;;;;;6.87;81.13;98512.38;4973428;28;20027;-74
2020/12/15 11:28:12;;;;;;;14.27;8.23;;;;;;;6.92;81.28;98503.72;4974560;28;20031;-73
2020/12/15 11:30:38;;;;;;;14.93;8.60;;;;;;;6.94;80.93;98507.13;4974578;28;20395;-71
2020/12/15 11:33:03;;;;;;;16.92;8.10;;;;;;;6.97;80.91;98505.44;4974304;28;20027;-70
2020/12/15 11:35:28;;;;;;;14.38;8.65;;;;;;;7.03;81.65;98505.38;4974171;28;20041;-70
2020/12/15 11:37:55;;;;;;;12.88;8.20;;;;;;;7.05;81.94;98498.47;4974573;28;20023;-74
2020/12/15 11:40:20;;;;;;;17.63;9.13;;;;;;;6.88;82.42;98496.03;4974430;28;20026;-70
2020/12/15 11:42:45;;;;;;;17.70;11.65;;;;;;;7.00;82.34;98500.22;4974287;28;20415;-70
2020/12/15 11:45:11;;;;;;;15.55;8.77;;;;;;;7.04;81.62;98501.91;4974175;28;20022;-71
2020/12/15 11:47:36;;;;;;;12.40;8.00;;;;;;;7.18;81.66;98505.22;4970592;28;20030;-71
2020/12/15 11:50:03;;;;;;;12.38;8.40;;;;;;;7.29;81.59;98500.81;4973779;28;20388;-71
2020/12/15 11:52:29;;;;;;;14.38;7.55;;;;;;;7.33;80.64;98512.81;4974166;28;20050;-71
2020/12/15 11:54:54;;;;;;;14.80;7.35;;;;;;;7.25;80.42;98501.72;4973971;28;20461;-71
2020/12/15 11:57:19;;;;;;;12.73;7.15;;;;;;;7.22;80.71;98507.78;4974186;28;20106;-71
2020/12/15 11:59:45;;;;;;;16.80;7.72;;;;;;;7.44;80.42;98507.56;4972276;28;20046;-71
2020/12/15 12:02:12;;;;;;;11.65;7.13;;;;;;;7.30;80.96;98512.88;4973857;28;20106;-71
2020/12/15 12:04:38;;;;;;;12.82;7.20;;;;;;;7.44;79.89;98505.81;4973381;28;20030;-71
2020/12/15 12:07:06;;;;;;;11.85;7.15;;;;;;;7.37;79.58;98511.06;4973626;28;20070;-71
2020/12/15 12:09:32;;;;;;;13.45;7.65;;;;;;;7.26;79.89;98506.03;4973767;28;20429;-71
2020/12/15 12:11:57;;;;;;;13.73;7.88;;;;;;;7.36;80.19;98505.06;4973725;28;20105;-71
2020/12/15 12:14:22;;;;;;;12.27;8.00;;;;;;;7.39;80.37;98509.31;4973421;28;20030;-71
2020/12/15 12:16:47;;;;;;;12.30;8.32;;;;;;;7.40;80.24;98506.75;4973611;28;20049;-71
2020/12/15 12:19:13;;;;;;;16.05;9.27;;;;;;;7.45;80.20;98515.28;4973333;28;20062;-71
2020/12/15 12:21:40;;;;;;;17.08;8.90;;;;;;;7.39;80.40;98510.19;4973324;28;20110;-71
2020/12/15 12:24:05;;;;;;;17.95;9.77;;;;;;;7.51;80.92;98508.38;4973182;28;20081;-71
2020/12/15 12:26:31;;;;;;;17.33;9.63;;;;;;;7.56;80.44;98507.44;4973127;28;20503;-71
2020/12/15 12:28:56;;;;;;;17.58;10.00;;;;;;;7.57;80.62;98508.28;4973223;28;20063;-71
2020/12/15 12:31:22;;;;;;;17.23;9.05;;;;;;;7.50;81.45;98512.69;4971713;28;20115;-71
2020/12/15 12:33:48;;;;;;;17.13;9.35;;;;;;;7.31;81.84;98496.53;4971821;28;20026;-71
2020/12/15 12:36:13;;;;;;;16.95;9.25;;;;;;;7.26;82.34;98508.59;4973082;28;20435;-71
2020/12/15 12:38:39;;;;;;;14.60;9.10;;;;;;;7.32;81.92;98513.69;4972948;28;20026;-71
2020/12/15 12:41:04;;;;;;;22.98;9.60;;;;;;;7.25;82.90;98521.47;4973072;28;20523;-71
2020/12/15 12:43:29;;;;;;;18.02;8.77;;;;;;;7.42;81.91;98525.63;4972295;28;20039;-71
2020/12/15 12:45:55;;;;;;;12.93;7.78;;;;;;;7.56;81.96;98540.09;4972755;28;20065;-70
2020/12/15 12:48:20;;;;;;;11.55;7.85;;;;;;;7.47;82.75;98539.31;4972827;28;20046;-69
2020/12/15 12:50:46;;;;;;;11.95;7.97;;;;;;;7.40;83.70;98540.25;4972495;28;20371;-69
2020/12/15 12:53:12;;;;;;;14.52;8.88;;;;;;;7.28;83.79;98537.78;4971829;28;20027;-69
2020/12/15 12:55:37;;;;;;;15.13;9.30;;;;;;;7.24;84.14;98540.38;4972561;28;20022;-69
2020/12/15 12:58:03;;;;;;;15.68;9.23;;;;;;;7.22;84.65;98543.00;4972838;28;20110;-69
2020/12/15 13:00:28;;;;;;;16.45;8.93;;;;;;;7.24;84.93;98540.38;4972608;28;20039;-69
2020/12/15 13:02:53;;;;;;;15.93;9.75;;;;;;;7.26;84.45;98539.53;4972688;28;20491;-70
2020/12/15 13:05:19;;;;;;;21.85;9.85;;;;;;;7.24;85.92;98536.09;4972731;28;20030;-70
2020/12/15 13:07:46;;;;;;;18.17;10.18;;;;;;;7.19;86.68;98533.56;4972911;28;20101;-70
2020/12/15 13:10:12;;;;;;;17.55;9.82;;;;;;;7.11;86.41;98534.50;4972574;28;20031;-70
2020/12/15 13:12:38;;;;;;;18.55;9.55;;;;;;;7.08;86.80;98524.22;4970733;28;20035;-69
2020/12/15 13:15:04;;;;;;;24.02;12.25;;;;;;;7.08;87.38;98535.38;5007012;23;20065;-75
2020/12/15 13:17:29;;;;;;;15.48;9.40;;;;;;;7.12;86.33;98543.94;4951858;29;20027;-75
2020/12/15 13:19:54;;;;;;;17.38;9.88;;;;;;;7.13;87.38;98549.06;4953068;28;20027;-75
2020/12/15 13:22:24;;;;;;;14.88;9.90;;;;;;;7.16;86.67;98543.06;4953016;28;20110;-75
2020/12/15 13:24:51;;;;;;;23.95;9.15;;;;;;;7.17;86.46;98542.19;4943783;29;20037;-76
2020/12/15 13:27:16;;;;;;;16.30;9.70;;;;;;;7.12;86.33;98546.50;4952850;28;20109;-76
2020/12/15 13:29:42;;;;;;;15.55;9.77;;;;;;;7.14;86.35;98549.91;4953047;28;20503;-76
2020/12/15 13:32:07;;;;;;;23.13;11.43;;;;;;;7.09;86.65;98551.69;4952720;28;20468;-76
2020/12/15 13:34:32;;;;;;;16.25;10.07;;;;;;;7.07;87.05;98543.13;4952563;28;20034;-76
2020/12/15 13:36:57;;;;;;;16.60;10.00;;;;;;;7.09;87.09;98551.69;4951698;28;20392;-75
2020/12/15 13:39:23;;;;;;;18.60;10.77;;;;;;;7.11;86.63;98555.13;4951574;28;20038;-76
2020/12/15 13:41:48;;;;;;;18.92;10.85;;;;;;;7.11;86.81;98549.97;4951677;28;20055;-75
2020/12/15 13:44:13;;;;;;;25.48;11.10;;;;;;;7.18;86.74;98556.75;4952660;28;20055;-75
2020/12/15 13:46:41;;;;;;;16.17;10.20;;;;;;;7.22;86.43;98553.31;4952608;28;20023;-75
2020/12/15 13:49:07;;;;;;;21.30;10.80;;;;;;;7.18;86.51;98561.91;4951218;28;20027;-76
2020/12/15 13:51:38;;;;;;;19.90;10.57;;;;;;;7.23;86.70;98560.16;4952503;28;20178;-75
2020/12/15 13:54:03;;;;;;;19.60;10.68;;;;;;;7.31;87.25;98563.53;4952718;28;20110;-75
2020/12/15 13:56:28;;;;;;;17.92;10.82;;;;;;;7.26;86.45;98574.75;4954242;28;20111;-75
2020/12/15 13:58:54;;;;;;;20.13;10.57;;;;;;;7.36;85.40;98571.22;4956775;28;20508;-76
2020/12/15 14:01:19;;;;;;;19.25;10.13;;;;;;;7.33;85.54;98579.81;4956442;28;20110;-76
2020/12/15 14:03:44;;;;;;;16.55;9.68;;;;;;;7.36;85.59;98577.22;4956518;28;20097;-76
2020/12/15 14:06:10;;;;;;;20.88;11.60;;;;;;;7.39;85.83;98571.19;4956448;28;20469;-76
2020/12/15 14:08:36;;;;;;;17.98;10.98;;;;;;;7.38;86.19;98580.63;4956378;28;20504;-76
2020/12/15 14:11:02;;;;;;;23.13;12.15;;;;;;;7.44;85.89;98580.56;4956458;28;20077;-75
2020/12/15 14:13:27;;;;;;;18.70;11.30;;;;;;;7.55;85.56;98582.22;4883546;28;20126;-76
2020/12/15 14:15:52;;;;;;;26.92;15.82;;;;;;;7.66;85.21;98583.84;4958172;28;20049;-76
2020/12/15 14:18:18;;;;;;;31.20;14.68;;;;;;;7.62;85.01;98599.34;4958964;28;20046;-75
2020/12/15 14:20:43;;;;;;;22.73;12.75;;;;;;;7.63;84.98;98585.56;4940303;28;20062;-75
2020/12/15 14:23:10;;;;;;;25.23;12.57;;;;;;;7.62;84.78;98599.34;4955769;28;20058;-75
2020/12/15 14:25:35;;;;;;;22.75;11.32;;;;;;;7.63;84.78;98596.75;4945261;28;20032;-75
2020/12/15 14:28:00;;;;;;;21.45;10.48;;;;;;;7.62;85.18;98607.94;4950119;29;20110;-74
2020/12/15 14:30:26;;;;;;;21.50;10.63;;;;;;;7.65;84.92;98601.91;4940215;28;20047;-74
2020/12/15 14:32:51;;;;;;;18.77;10.13;;;;;;;7.64;85.43;98607.91;4952188;28;20031;-75
2020/12/15 14:35:17;;;;;;;21.40;10.88;;;;;;;7.69;85.01;98611.31;4936885;29;20020;-74
2020/12/15 14:37:42;;;;;;;18.35;11.02;;;;;;;7.85;84.57;98617.19;4947641;29;20102;-74
2020/12/15 14:40:07;;;;;;;15.48;10.35;;;;;;;7.73;84.71;98612.97;4941818;28;20123;-76
2020/12/15 14:42:33;;;;;;;19.13;10.90;;;;;;;7.63;84.85;98616.50;4952453;29;20027;-74
2020/12/15 14:44:58;;;;;;;24.00;11.05;;;;;;;7.58;85.51;98607.97;4941384;29;20464;-75
2020/12/15 14:47:24;;;;;;;14.93;10.05;;;;;;;7.49;85.40;98614.06;4947683;28;20087;-75
2020/12/15 14:49:50;;;;;;;17.50;10.80;;;;;;;7.58;85.87;98615.69;4948258;29;20019;-75
2020/12/15 14:52:18;;;;;;;16.48;10.70;;;;;;;7.49;86.36;98619.22;4939419;28;20027;-75
2020/12/15 14:54:43;;;;;;;16.50;11.02;;;;;;;7.70;85.94;98619.03;4952298;29;20027;-75
2020/12/15 14:57:08;;;;;;;19.33;12.35;;;;;;;7.56;85.56;98620.88;4942676;29;20624;-82
2020/12/15 14:59:34;;;;;;;17.23;10.95;;;;;;;7.51;86.34;98626.94;4946289;28;20028;-82
2020/12/15 15:02:00;;;;;;;20.60;11.40;;;;;;;7.47;87.11;98632.13;4949101;29;20023;-83
2020/12/15 15:04:25;;;;;;;19.00;11.75;;;;;;;7.42;87.19;98625.28;4938324;28;20027;-82
2020/12/15 15:06:50;;;;;;;24.13;11.75;;;;;;;7.43;87.42;98640.75;4951380;28;20070;-82
2020/12/15 15:09:16;;;;;;;16.00;10.80;;;;;;;7.42;87.43;98643.34;4943434;29;20103;-82
2020/12/15 15:11:41;;;;;;;31.25;16.08;;;;;;;7.41;87.95;98642.47;4945042;28;20710;-83
2020/12/15 15:14:06;;;;;;;36.53;20.45;;;;;;;7.42;88.34;98644.19;4949790;29;20106;-82
2020/12/15 15:16:32;;;;;;;35.70;20.70;;;;;;;7.38;88.81;98649.38;4939408;28;20095;-81
2020/12/15 15:18:58;;;;;;;29.15;17.15;;;;;;;7.34;88.98;98656.25;4934811;29;20024;-81
2020/12/15 15:21:23;;;;;;;22.27;13.98;;;;;;;7.34;89.71;98651.09;4942969;29;20495;-81
2020/12/15 15:23:50;;;;;;;23.58;14.15;;;;;;;7.32;90.27;98663.16;4942425;28;20035;-82
2020/12/15 15:26:17;;;;;;;22.42;13.80;;;;;;;7.30;89.97;98658.88;4935773;29;20028;-82
